createdAt,value
2022-08-12T00:00:47.446Z,1.30
2022-08-12T00:03:32.224Z,1.50
2022-08-12T00:06:17.815Z,1.08
2022-08-12T00:09:03.053Z,0.90
2022-08-12T00:11:47.943Z,1.25
2022-08-12T00:14:33.335Z,2.03
2022-08-12T00:17:18.559Z,1.10
2022-08-12T00:20:04.977Z,1.20
2022-08-12T00:22:58.730Z,1.30
2022-08-12T00:26:20.730Z,1.20
2022-08-12T00:29:04.183Z,1.48
2022-08-12T00:31:49.592Z,1.42
2022-08-12T00:34:35.406Z,1.20
2022-08-12T00:37:20.690Z,1.10
2022-08-12T00:40:11.759Z,1.42
2022-08-12T00:42:40.955Z,1.50
2022-08-12T00:45:10.062Z,1.40
2022-08-12T00:47:39.288Z,1.38
2022-08-12T00:50:07.782Z,1.20
2022-08-12T00:52:36.554Z,1.40
2022-08-12T00:55:06.086Z,1.30
2022-08-12T00:57:36.785Z,1.23
2022-08-12T01:00:12.593Z,1.33
2022-08-12T01:02:43.299Z,1.25
2022-08-12T01:05:31.611Z,1.70
2022-08-12T01:08:17.152Z,1.67
2022-08-12T01:11:04.511Z,1.30
2022-08-12T01:13:35.227Z,1.20
2022-08-12T01:16:06.174Z,1.50
2022-08-12T01:18:36.334Z,1.27
2022-08-12T01:21:22.267Z,1.90
2022-08-12T01:23:52.559Z,1.92
2022-08-12T01:26:24.284Z,1.30
2022-08-12T01:28:58.824Z,1.35
2022-08-12T01:31:29.397Z,1.27
2022-08-12T01:34:35.839Z,1.48
2022-08-12T01:37:02.139Z,1.20
2022-08-12T01:40:33.580Z,1.40
2022-08-12T01:42:45.953Z,1.33
2022-08-12T01:45:14.316Z,1.35
2022-08-12T01:48:05.536Z,1.45
2022-08-12T01:51:06.372Z,2.00
2022-08-12T01:54:01.303Z,1.70
2022-08-12T01:56:42.279Z,2.38
2022-08-12T01:59:32.108Z,1.42
2022-08-12T02:02:04.615Z,1.50
2022-08-12T02:05:16.239Z,1.63
2022-08-12T02:08:33.808Z,1.38
2022-08-12T02:11:24.454Z,1.67
2022-08-12T02:14:03.860Z,1.65
2022-08-12T02:16:37.922Z,1.30
2022-08-12T02:19:21.987Z,1.30
2022-08-12T02:22:12.026Z,1.60
2022-08-12T02:24:42.561Z,1.40
2022-08-12T02:27:13.443Z,1.45
2022-08-12T02:29:41.458Z,1.88
2022-08-12T02:32:09.852Z,2.08
2022-08-12T02:34:38.809Z,1.98
2022-08-12T02:37:09.037Z,1.70
2022-08-12T02:39:38.384Z,1.83
2022-08-12T02:42:09.247Z,1.58
2022-08-12T02:44:41.098Z,1.80
2022-08-12T02:47:58.093Z,1.75
2022-08-12T02:50:00.280Z,1.80
2022-08-12T02:52:29.302Z,1.83
2022-08-12T02:55:04.392Z,1.65
2022-08-12T02:57:32.939Z,2.03
2022-08-12T03:00:07.404Z,1.92
2022-08-12T03:02:39.425Z,1.80
2022-08-12T03:07:59.071Z,1.90
2022-08-12T03:10:36.842Z,1.58
2022-08-12T03:13:07.087Z,2.13
2022-08-12T03:15:35.636Z,2.42
2022-08-12T03:18:25.413Z,2.55
2022-08-12T03:20:58.173Z,1.90
2022-08-12T03:23:30.143Z,3.95
2022-08-12T03:26:03.036Z,2.25
2022-08-12T03:28:54.238Z,1.83
2022-08-12T03:31:32.263Z,1.80
2022-08-12T03:34:08.812Z,3.25
2022-08-12T03:36:38.790Z,2.10
2022-08-12T03:39:36.599Z,2.13
2022-08-12T03:42:42.848Z,2.47
2022-08-12T03:45:51.608Z,2.30
2022-08-12T03:48:38.150Z,2.40
2022-08-12T03:51:23.422Z,2.50
2022-08-12T03:54:11.051Z,2.95
2022-08-12T03:56:57.067Z,2.50
2022-08-12T03:59:41.896Z,2.15
2022-08-12T04:02:15.247Z,2.33
2022-08-12T04:04:45.529Z,2.70
2022-08-12T04:07:16.151Z,2.97
2022-08-12T04:09:45.954Z,2.75
2022-08-12T04:12:40.185Z,2.53
2022-08-12T04:15:13.758Z,3.35
2022-08-12T04:18:07.439Z,2.30
2022-08-12T04:20:30.979Z,2.50
2022-08-12T04:22:59.357Z,2.53
2022-08-12T04:25:29.085Z,2.53
2022-08-12T04:27:56.853Z,2.45
2022-08-12T04:30:41.030Z,2.20
2022-08-12T04:33:10.473Z,2.42
2022-08-12T04:35:38.447Z,2.83
2022-08-12T04:38:06.215Z,2.63
2022-08-12T04:40:36.374Z,2.33
2022-08-12T04:43:04.428Z,3.30
2022-08-12T04:45:34.565Z,2.60
2022-08-12T04:48:03.024Z,2.88
2022-08-12T04:50:35.710Z,2.65
2022-08-12T04:53:06.471Z,2.58
2022-08-12T04:55:34.588Z,2.85
2022-08-12T04:58:02.192Z,2.28
2022-08-12T05:00:30.009Z,2.97
2022-08-12T05:02:57.595Z,2.60
2022-08-12T05:05:25.662Z,2.40
2022-08-12T05:07:55.296Z,2.35
2022-08-12T05:10:33.408Z,3.42
2022-08-12T05:13:06.066Z,2.63
2022-08-12T05:15:36.100Z,3.78
2022-08-12T05:18:19.136Z,2.72
2022-08-12T05:20:48.291Z,2.67
2022-08-12T05:23:21.383Z,3.08
2022-08-12T05:25:51.504Z,3.10
2022-08-12T05:28:19.229Z,3.63
2022-08-12T05:30:48.006Z,3.35
2022-08-12T05:33:15.862Z,3.25
2022-08-12T05:35:45.280Z,3.13
2022-08-12T05:38:33.509Z,2.72
2022-08-12T05:41:02.143Z,3.83
2022-08-12T05:43:29.921Z,2.80
2022-08-12T05:45:57.702Z,3.10
2022-08-12T05:48:25.466Z,3.47
2022-08-12T05:50:53.591Z,3.08
2022-08-12T05:53:21.104Z,3.03
2022-08-12T05:55:48.610Z,3.15
2022-08-12T05:58:16.160Z,3.00
2022-08-12T06:00:43.724Z,2.80
2022-08-12T06:03:12.011Z,2.90
2022-08-12T06:05:43.002Z,3.95
2022-08-12T06:08:23.539Z,3.60
2022-08-12T06:10:51.224Z,3.30
2022-08-12T06:13:28.339Z,3.10
2022-08-12T06:16:08.260Z,2.90
2022-08-12T06:18:40.002Z,2.90
2022-08-12T06:21:25.808Z,2.40
2022-08-12T06:23:54.434Z,2.03
2022-08-12T06:26:22.363Z,3.05
2022-08-12T06:28:51.392Z,2.88
2022-08-12T06:31:26.282Z,2.50
2022-08-12T06:34:57.960Z,2.80
2022-08-12T06:36:43.129Z,2.08
2022-08-12T06:39:14.335Z,3.13
2022-08-12T06:42:05.137Z,2.83
2022-08-12T06:44:50.442Z,2.15
2022-08-12T06:47:19.429Z,2.28
2022-08-12T06:49:48.623Z,2.20
2022-08-12T06:52:17.199Z,2.20
2022-08-12T06:54:45.750Z,2.70
2022-08-12T06:58:06.178Z,2.10
2022-08-12T07:00:00.840Z,2.47
2022-08-12T07:02:29.976Z,2.17
2022-08-12T07:05:00.100Z,2.35
2022-08-12T07:07:27.640Z,2.05
2022-08-12T07:10:05.425Z,2.30
2022-08-12T07:12:35.491Z,1.92
2022-08-12T07:15:03.143Z,2.00
2022-08-12T07:17:36.176Z,3.08
2022-08-12T07:20:35.962Z,1.60
2022-08-12T07:23:01.866Z,1.75
2022-08-12T07:25:38.516Z,1.70
2022-08-12T07:28:16.170Z,1.60
2022-08-12T07:30:45.306Z,1.42
2022-08-12T07:33:15.720Z,1.70
2022-08-12T07:35:45.395Z,1.50
2022-08-12T07:38:33.428Z,1.35
2022-08-12T07:41:14.478Z,1.58
2022-08-12T07:43:58.264Z,1.10
2022-08-12T07:46:36.628Z,1.23
2022-08-12T07:49:16.426Z,1.58
2022-08-12T07:51:45.370Z,1.58
2022-08-12T07:54:14.111Z,1.52
2022-08-12T07:56:43.471Z,1.40
2022-08-12T07:59:11.978Z,1.40
2022-08-12T08:01:39.865Z,1.65
2022-08-12T08:04:25.703Z,1.50
2022-08-12T08:06:54.059Z,1.48
2022-08-12T08:09:24.309Z,1.58
2022-08-12T08:12:19.013Z,1.70
2022-08-12T08:14:49.950Z,1.27
2022-08-12T08:17:18.172Z,1.73
2022-08-12T08:20:02.594Z,1.30
2022-08-12T08:22:50.308Z,1.88
2022-08-12T08:25:35.272Z,1.58
2022-08-12T08:28:08.958Z,1.33
2022-08-12T08:30:39.342Z,2.42
2022-08-12T08:33:24.504Z,1.40
2022-08-12T08:35:58.395Z,1.60
2022-08-12T08:38:32.666Z,1.45
2022-08-12T08:42:18.915Z,1.60
2022-08-12T08:44:12.025Z,1.48
2022-08-12T08:46:43.693Z,1.38
2022-08-12T08:49:12.655Z,1.20
2022-08-12T08:51:40.789Z,1.95
2022-08-12T08:54:11.535Z,1.45
2022-08-12T08:56:43.967Z,1.30
2022-08-12T08:59:13.562Z,1.17
2022-08-12T09:01:44.382Z,1.30
2022-08-12T09:05:07.721Z,1.20
2022-08-12T09:07:00.693Z,1.15
2022-08-12T09:15:39.154Z,1.20
2022-08-12T09:18:11.119Z,1.48
2022-08-12T09:20:42.527Z,1.50
2022-08-12T09:26:03.773Z,1.77
2022-08-12T09:28:32.869Z,1.20
2022-08-12T09:31:01.154Z,1.05
2022-08-12T09:34:29.084Z,1.58
2022-08-12T09:36:30.747Z,1.20
2022-08-12T09:39:02.481Z,1.00
2022-08-12T09:42:38.983Z,1.60
2022-08-12T09:45:19.225Z,1.35
2022-08-12T09:47:59.842Z,1.10
2022-08-12T09:50:28.667Z,1.25
2022-08-12T09:53:15.406Z,1.20
2022-08-12T09:56:05.840Z,1.30
2022-08-12T09:58:58.468Z,1.00
2022-08-12T10:01:25.294Z,1.10
2022-08-12T10:04:05.739Z,1.17
2022-08-12T10:06:36.770Z,0.90
2022-08-12T10:09:20.946Z,0.90
2022-08-12T10:12:12.111Z,0.90
2022-08-12T10:14:49.954Z,1.10
2022-08-12T10:17:23.444Z,1.48
2022-08-12T10:19:53.077Z,1.15
2022-08-12T10:22:36.810Z,1.05
2022-08-12T10:25:24.637Z,1.15
2022-08-12T10:28:29.491Z,1.00
2022-08-12T10:30:58.324Z,1.25
2022-08-12T10:33:30.850Z,1.27
2022-08-12T10:35:59.997Z,1.08
2022-08-12T10:38:33.853Z,1.10
2022-08-12T10:41:21.601Z,1.15
2022-08-12T10:43:56.450Z,1.17
2022-08-12T10:46:31.202Z,1.13
2022-08-12T10:49:06.263Z,1.77
2022-08-12T10:52:33.209Z,1.08
2022-08-12T10:57:09.161Z,1.00
2022-08-12T11:00:32.820Z,0.70
2022-08-12T11:04:24.694Z,0.90
2022-08-12T11:07:07.467Z,0.93
2022-08-12T11:08:36.957Z,0.90
2022-08-12T11:10:58.976Z,1.00
2022-08-12T11:13:46.130Z,1.30
2022-08-12T11:16:22.492Z,0.93
2022-08-12T11:18:55.135Z,1.00
2022-08-12T11:21:56.688Z,1.08
2022-08-12T11:24:30.886Z,1.00
2022-08-12T11:27:00.002Z,1.10
2022-08-12T11:30:02.032Z,0.77
2022-08-12T11:32:17.416Z,1.67
2022-08-12T11:34:53.059Z,1.00
2022-08-12T11:37:25.683Z,1.55
2022-08-12T11:42:39.858Z,1.40
2022-08-12T11:45:16.287Z,1.05
2022-08-12T11:47:44.863Z,1.10
2022-08-12T11:50:19.041Z,1.00
2022-08-12T11:52:56.799Z,1.30
2022-08-12T11:55:27.509Z,1.75
2022-08-12T11:58:40.658Z,1.30
2022-08-12T12:03:43.876Z,1.20
2022-08-12T12:06:17.129Z,1.20
2022-08-12T12:08:50.940Z,1.15
2022-08-12T12:11:20.873Z,1.40
2022-08-12T12:14:10.936Z,1.38
2022-08-12T12:16:39.838Z,1.25
2022-08-12T12:19:10.402Z,1.10
2022-08-12T12:21:46.973Z,1.20
2022-08-12T12:24:20.898Z,0.88
2022-08-12T12:26:48.490Z,1.10
2022-08-12T12:30:14.096Z,1.48
2022-08-12T12:32:16.783Z,1.00
2022-08-12T12:35:14.554Z,1.05
2022-08-12T12:38:03.985Z,1.20
2022-08-12T12:40:22.090Z,0.88
2022-08-12T12:43:01.680Z,1.15
2022-08-12T12:45:33.648Z,1.05
2022-08-12T12:48:08.288Z,0.98
2022-08-12T12:50:45.651Z,1.08
2022-08-12T12:54:05.294Z,1.25
2022-08-12T12:56:21.023Z,1.08
2022-08-12T12:59:03.525Z,1.17
2022-08-12T13:01:38.399Z,1.45
2022-08-12T13:04:13.702Z,1.17
2022-08-12T13:06:42.173Z,1.10
2022-08-12T13:09:13.240Z,1.13
2022-08-12T13:11:42.129Z,0.82
2022-08-12T13:14:29.483Z,1.08
2022-08-12T13:17:02.694Z,1.10
2022-08-12T13:19:44.525Z,0.90
2022-08-12T13:22:20.420Z,1.00
2022-08-12T13:24:55.995Z,0.90
2022-08-12T13:27:48.442Z,0.88
2022-08-12T13:30:18.857Z,1.00
2022-08-12T13:32:56.851Z,0.88
2022-08-12T13:36:02.766Z,0.80
2022-08-12T13:38:26.863Z,0.90
2022-08-12T13:41:02.654Z,0.90
2022-08-12T13:43:41.054Z,1.02
2022-08-12T13:46:12.469Z,2.85
2022-08-12T13:51:14.325Z,0.90
2022-08-12T13:53:59.317Z,0.90
2022-08-12T13:56:34.750Z,0.90
2022-08-12T13:59:07.970Z,1.40
2022-08-12T14:01:40.373Z,0.80
2022-08-12T14:04:11.502Z,0.90
2022-08-12T14:06:40.765Z,0.80
2022-08-12T14:09:15.415Z,0.80
2022-08-12T14:11:51.320Z,0.95
2022-08-12T14:14:27.003Z,1.00
2022-08-12T14:16:55.168Z,1.10
2022-08-12T14:19:27.123Z,0.85
2022-08-12T14:22:05.483Z,0.80
2022-08-12T14:24:40.032Z,1.20
2022-08-12T14:27:10.720Z,0.90
2022-08-12T14:30:05.391Z,0.80
2022-08-12T14:32:39.980Z,1.20
2022-08-12T14:35:09.161Z,1.55
2022-08-12T14:37:56.010Z,1.00
2022-08-12T14:40:28.308Z,0.93
2022-08-12T14:42:57.432Z,0.80
2022-08-12T14:45:44.506Z,1.00
2022-08-12T14:48:14.856Z,0.90
2022-08-12T14:51:09.797Z,0.75
2022-08-12T14:59:27.327Z,0.97
2022-08-12T15:02:19.596Z,1.20
2022-08-12T15:04:59.339Z,0.70
2022-08-12T15:07:34.307Z,1.08
2022-08-12T15:10:31.620Z,0.80
2022-08-12T15:12:59.600Z,0.95
2022-08-12T15:15:28.267Z,1.23
2022-08-12T15:18:05.048Z,0.90
2022-08-12T15:20:37.430Z,0.90
2022-08-12T15:23:17.433Z,2.13
2022-08-12T15:25:47.758Z,1.25
2022-08-12T15:28:22.269Z,1.00
2022-08-12T15:30:53.115Z,1.30
2022-08-12T15:33:24.308Z,0.98
2022-08-12T15:38:25.253Z,1.00
2022-08-12T15:40:54.208Z,1.38
2022-08-12T15:43:52.105Z,1.20
2022-08-12T15:46:15.750Z,1.52
2022-08-12T15:48:46.747Z,1.15
2022-08-12T15:51:59.946Z,1.00
2022-08-12T15:57:16.834Z,1.30
2022-08-12T16:00:03.911Z,1.48
2022-08-12T16:02:50.139Z,1.10
2022-08-12T16:06:12.339Z,0.93
2022-08-12T16:08:18.382Z,1.05
2022-08-12T16:10:48.187Z,1.20
2022-08-12T16:13:32.358Z,0.80
2022-08-12T16:16:03.274Z,1.40
2022-08-12T16:18:35.584Z,1.30
2022-08-12T16:21:07.310Z,1.00
2022-08-12T16:23:51.872Z,1.10
2022-08-12T16:26:32.309Z,1.23
2022-08-12T16:29:14.511Z,0.90
2022-08-12T16:31:43.385Z,0.90
2022-08-12T16:34:25.771Z,1.10
2022-08-12T16:37:03.183Z,1.20
2022-08-12T16:39:54.282Z,1.20
2022-08-12T16:42:22.625Z,1.30
2022-08-12T16:44:56.579Z,1.15
2022-08-12T16:47:27.250Z,1.20
2022-08-12T16:49:57.721Z,1.10
2022-08-12T16:52:26.294Z,1.27
2022-08-12T16:54:54.621Z,1.23
2022-08-12T16:57:32.434Z,0.93
2022-08-12T17:00:04.158Z,1.15
2022-08-12T17:02:35.324Z,1.10
2022-08-12T17:05:05.521Z,1.38
2022-08-12T17:07:37.902Z,0.95
2022-08-12T17:10:07.942Z,0.90
2022-08-12T17:12:37.591Z,0.90
2022-08-12T17:15:25.712Z,0.90
2022-08-12T17:18:39.423Z,1.42
2022-08-12T17:20:47.711Z,0.95
2022-08-12T17:23:17.722Z,1.17
2022-08-12T17:25:52.964Z,0.95
2022-08-12T17:28:22.703Z,1.27
2022-08-12T17:30:59.511Z,1.35
2022-08-12T17:33:33.515Z,1.08
2022-08-12T17:36:05.610Z,1.20
2022-08-12T17:38:34.643Z,0.80
2022-08-12T17:41:22.638Z,1.00
2022-08-12T17:43:56.816Z,0.88
2022-08-12T17:46:33.646Z,0.90
2022-08-12T17:49:06.587Z,0.98
2022-08-12T17:51:50.432Z,1.05
2022-08-12T17:54:18.764Z,0.90
2022-08-12T17:56:47.346Z,1.10
2022-08-12T17:59:48.317Z,1.15
2022-08-12T18:02:13.620Z,0.93
2022-08-12T18:05:04.601Z,1.10
2022-08-12T18:10:04.819Z,0.95
2022-08-12T18:12:40.100Z,0.90
2022-08-12T18:15:26.194Z,1.13
2022-08-12T18:17:59.193Z,0.90
2022-08-12T18:20:28.876Z,1.00
2022-08-12T18:22:59.382Z,0.80
2022-08-12T18:26:15.237Z,0.95
2022-08-12T18:28:40.419Z,0.82
2022-08-12T18:31:08.428Z,0.93
2022-08-12T18:33:44.055Z,0.77
2022-08-12T18:36:14.502Z,0.82
2022-08-12T18:38:51.136Z,1.05
2022-08-12T18:41:34.185Z,0.80
2022-08-12T18:46:55.612Z,1.02
2022-08-12T18:49:34.940Z,1.00
2022-08-12T18:52:08.109Z,1.50
2022-08-12T18:54:49.263Z,0.80
2022-08-12T18:58:06.151Z,1.27
2022-08-12T19:00:21.010Z,1.10
2022-08-12T19:02:51.940Z,1.42
2022-08-12T19:05:21.083Z,1.10
2022-08-12T19:08:00.986Z,1.30
2022-08-12T19:10:32.348Z,0.90
2022-08-12T19:13:23.143Z,1.20
2022-08-12T19:15:54.405Z,1.20
2022-08-12T19:18:24.452Z,1.20
2022-08-12T19:20:58.283Z,1.20
2022-08-12T19:23:33.782Z,1.10
2022-08-12T19:26:03.450Z,1.20
2022-08-12T19:28:34.932Z,1.38
2022-08-12T19:31:56.328Z,1.30
2022-08-12T19:35:06.658Z,1.50
2022-08-12T19:38:04.464Z,1.00
2022-08-12T19:40:32.877Z,1.50
2022-08-12T19:43:20.008Z,1.65
2022-08-12T19:45:54.446Z,2.00
2022-08-12T19:48:30.682Z,1.73
2022-08-12T19:51:08.671Z,1.80
2022-08-12T19:53:40.357Z,1.83
2022-08-12T19:56:25.494Z,2.03
2022-08-12T19:58:53.838Z,1.80
2022-08-12T20:01:23.934Z,1.50
2022-08-12T20:03:57.667Z,1.70
2022-08-12T20:06:33.892Z,2.22
2022-08-12T20:09:04.126Z,2.03
2022-08-12T20:12:11.962Z,1.92
2022-08-12T20:14:21.160Z,1.70
2022-08-12T20:16:52.902Z,1.98
2022-08-12T20:20:04.090Z,1.83
2022-08-12T20:22:24.551Z,1.75
2022-08-12T20:25:01.597Z,1.88
2022-08-12T20:28:04.660Z,2.25
2022-08-12T20:30:20.541Z,2.38
2022-08-12T20:33:05.587Z,1.85
2022-08-12T20:36:06.741Z,2.55
2022-08-12T20:38:26.868Z,1.95
2022-08-12T20:40:55.583Z,2.17
2022-08-12T20:43:24.094Z,1.80
2022-08-12T20:45:58.013Z,2.55
2022-08-12T20:48:29.729Z,2.08
2022-08-12T20:51:04.454Z,2.10
2022-08-12T20:53:53.967Z,1.60
2022-08-12T20:56:30.668Z,2.50
2022-08-12T20:59:01.074Z,2.33
2022-08-12T21:01:46.557Z,1.50
2022-08-12T21:04:34.868Z,2.42
2022-08-12T21:07:08.947Z,1.67
2022-08-12T21:09:44.282Z,2.60
2022-08-12T21:12:28.285Z,2.55
2022-08-12T21:15:23.634Z,1.80
2022-08-12T21:18:11.252Z,1.80
2022-08-12T21:20:54.751Z,1.92
2022-08-12T21:23:25.439Z,3.05
2022-08-12T21:25:56.641Z,1.70
2022-08-12T21:28:31.303Z,4.20
2022-08-12T21:32:35.095Z,2.20
2022-08-12T21:34:08.193Z,2.20
2022-08-12T21:36:43.401Z,2.08
2022-08-12T21:39:27.815Z,2.17
2022-08-12T21:42:06.824Z,2.03
2022-08-12T21:45:47.443Z,2.22
2022-08-12T21:47:28.851Z,2.38
2022-08-12T21:50:06.480Z,2.55
2022-08-12T21:52:40.888Z,2.65
2022-08-12T21:55:18.196Z,2.33
2022-08-12T21:57:50.918Z,2.03
2022-08-12T22:00:24.001Z,1.90
2022-08-12T22:03:55.029Z,2.53
2022-08-12T22:06:26.317Z,1.95
2022-08-12T22:09:09.043Z,1.67
2022-08-12T22:11:49.121Z,1.83
2022-08-12T22:14:24.555Z,1.70
2022-08-12T22:16:54.803Z,2.00
2022-08-12T22:19:23.540Z,1.77
2022-08-12T22:21:55.551Z,1.60
2022-08-12T22:24:30.024Z,2.47
2022-08-12T22:27:18.179Z,1.90
2022-08-12T22:30:07.278Z,1.73
2022-08-12T22:32:36.515Z,1.80
2022-08-12T22:35:23.202Z,1.15
2022-08-12T22:37:53.565Z,1.40
2022-08-12T22:40:23.891Z,1.45
2022-08-12T22:43:15.784Z,1.40
2022-08-12T22:45:59.063Z,1.27
2022-08-12T22:48:27.001Z,1.23
2022-08-12T22:50:59.051Z,1.30
2022-08-12T22:53:36.231Z,1.60
2022-08-12T22:56:07.189Z,1.60
2022-08-12T22:58:41.383Z,1.52
2022-08-12T23:01:10.690Z,1.02
2022-08-12T23:03:49.086Z,0.90
2022-08-12T23:06:20.233Z,1.17
2022-08-12T23:08:48.401Z,1.13
2022-08-12T23:11:17.180Z,1.20
2022-08-12T23:13:54.959Z,1.30
2022-08-12T23:16:31.202Z,1.15
2022-08-12T23:19:10.602Z,1.10
2022-08-12T23:22:05.065Z,1.05
2022-08-12T23:24:54.103Z,1.33
2022-08-12T23:27:51.191Z,1.38
2022-08-12T23:30:32.049Z,1.35
2022-08-12T23:36:02.362Z,1.20
2022-08-12T23:38:32.307Z,1.13
2022-08-12T23:41:05.975Z,1.10
2022-08-12T23:43:39.678Z,1.05
2022-08-12T23:46:10.002Z,0.98
2022-08-12T23:48:38.723Z,0.95
2022-08-12T23:51:22.055Z,1.30
2022-08-12T23:54:03.019Z,1.00
2022-08-12T23:56:33.631Z,1.30
2022-08-12T23:59:03.354Z,1.10
